sensor_id;sensor_type;location;lat;lon;timestamp;temperature;humidity
322;DHT22;148;51.480;7.208;2022-12-26T02:42:28;11.50;99.90
322;DHT22;148;51.480;7.208;2022-12-26T02:44:52;11.50;99.90
322;DHT22;148;51.480;7.208;2022-12-26T02:48:04;11.70;99.90
322;DHT22;148;51.480;7.208;2022-12-26T02:56:51;11.90;99.90
322;DHT22;148;51.480;7.208;2022-12-26T02:59:51;11.90;99.90
322;DHT22;148;51.480;7.208;2022-12-26T03:03:00;11.90;99.90
322;DHT22;148;51.480;7.208;2022-12-26T03:08:53;11.90;99.90
322;DHT22;148;51.480;7.208;2022-12-26T03:11:40;11.90;99.90
322;DHT22;148;51.480;7.208;2022-12-26T03:14:49;11.90;99.90
322;DHT22;148;51.480;7.208;2022-12-26T03:17:23;11.90;99.90
322;DHT22;148;51.480;7.208;2022-12-26T03:20:00;12.00;99.90
322;DHT22;148;51.480;7.208;2022-12-26T03:22:38;12.00;99.90
322;DHT22;148;51.480;7.208;2022-12-26T14:48:50;8.50;99.90
322;DHT22;148;51.480;7.208;2022-12-26T14:53:46;8.80;99.90
322;DHT22;148;51.480;7.208;2022-12-26T14:56:35;9.00;99.90
322;DHT22;148;51.480;7.208;2022-12-26T15:01:48;9.20;2.50
322;DHT22;148;51.480;7.208;2022-12-26T15:04:50;9.30;5.90
322;DHT22;148;51.480;7.208;2022-12-26T15:09:56;9.40;10.90
322;DHT22;148;51.480;7.208;2022-12-26T15:12:41;9.40;14.20
322;DHT22;148;51.480;7.208;2022-12-26T15:15:31;9.40;15.30
322;DHT22;148;51.480;7.208;2022-12-26T15:30:13;9.40;17.20
322;DHT22;148;51.480;7.208;2022-12-26T15:41:09;9.40;17.00
322;DHT22;148;51.480;7.208;2022-12-26T15:44:22;9.50;19.50
322;DHT22;148;51.480;7.208;2022-12-26T15:49:54;9.40;20.40
322;DHT22;148;51.480;7.208;2022-12-26T15:52:42;9.40;23.50
322;DHT22;148;51.480;7.208;2022-12-26T15:55:22;9.30;25.10
322;DHT22;148;51.480;7.208;2022-12-26T16:00:54;9.20;26.10
322;DHT22;148;51.480;7.208;2022-12-26T16:06:18;9.00;27.90
322;DHT22;148;51.480;7.208;2022-12-26T16:09:14;9.00;28.80
322;DHT22;148;51.480;7.208;2022-12-26T16:11:58;8.90;28.80
322;DHT22;148;51.480;7.208;2022-12-26T16:16:51;8.80;32.60
322;DHT22;148;51.480;7.208;2022-12-26T16:19:26;8.70;31.90
322;DHT22;148;51.480;7.208;2022-12-26T16:21:55;8.60;30.60
322;DHT22;148;51.480;7.208;2022-12-26T16:24:42;8.60;29.00
322;DHT22;148;51.480;7.208;2022-12-26T16:27:16;8.50;28.30
322;DHT22;148;51.480;7.208;2022-12-26T16:29:46;8.50;30.40
322;DHT22;148;51.480;7.208;2022-12-26T16:32:16;8.60;30.00
322;DHT22;148;51.480;7.208;2022-12-26T16:34:42;8.70;29.40
322;DHT22;148;51.480;7.208;2022-12-26T16:37:14;8.60;29.90
322;DHT22;148;51.480;7.208;2022-12-26T16:39:41;8.60;31.50
322;DHT22;148;51.480;7.208;2022-12-26T16:42:27;8.60;32.30
322;DHT22;148;51.480;7.208;2022-12-26T16:44:54;8.60;31.50
322;DHT22;148;51.480;7.208;2022-12-26T16:47:20;8.70;33.30
322;DHT22;148;51.480;7.208;2022-12-26T16:49:46;8.70;35.80
322;DHT22;148;51.480;7.208;2022-12-26T16:52:34;8.70;35.30
322;DHT22;148;51.480;7.208;2022-12-26T16:55:36;8.70;35.40
322;DHT22;148;51.480;7.208;2022-12-26T16:58:18;8.60;34.60
322;DHT22;148;51.480;7.208;2022-12-26T17:06:13;8.60;32.40
322;DHT22;148;51.480;7.208;2022-12-26T17:08:46;8.50;34.10
322;DHT22;148;51.480;7.208;2022-12-26T17:11:12;8.40;36.70
322;DHT22;148;51.480;7.208;2022-12-26T17:13:39;8.30;38.40
322;DHT22;148;51.480;7.208;2022-12-26T17:16:07;8.20;38.40
322;DHT22;148;51.480;7.208;2022-12-26T17:18:46;8.20;38.60
322;DHT22;148;51.480;7.208;2022-12-26T17:24:29;8.10;33.70
322;DHT22;148;51.480;7.208;2022-12-26T17:27:17;8.00;31.70
322;DHT22;148;51.480;7.208;2022-12-26T17:29:50;8.10;31.90
322;DHT22;148;51.480;7.208;2022-12-26T17:32:59;8.20;33.60
322;DHT22;148;51.480;7.208;2022-12-26T17:35:18;8.10;37.50
322;DHT22;148;51.480;7.208;2022-12-26T17:37:44;8.00;37.80
322;DHT22;148;51.480;7.208;2022-12-26T17:42:55;7.90;36.00
322;DHT22;148;51.480;7.208;2022-12-26T17:45:28;7.90;35.80
322;DHT22;148;51.480;7.208;2022-12-26T17:47:54;7.90;36.70
322;DHT22;148;51.480;7.208;2022-12-26T17:50:22;7.70;38.40
322;DHT22;148;51.480;7.208;2022-12-26T17:52:49;7.70;40.40
322;DHT22;148;51.480;7.208;2022-12-26T17:55:24;7.70;40.50
322;DHT22;148;51.480;7.208;2022-12-26T17:57:51;7.80;42.40
322;DHT22;148;51.480;7.208;2022-12-26T18:00:22;7.70;43.30
322;DHT22;148;51.480;7.208;2022-12-26T18:02:48;7.60;42.90
322;DHT22;148;51.480;7.208;2022-12-26T18:05:14;7.70;40.90
322;DHT22;148;51.480;7.208;2022-12-26T18:07:40;7.70;40.00
322;DHT22;148;51.480;7.208;2022-12-26T18:10:14;7.70;39.40
322;DHT22;148;51.480;7.208;2022-12-26T18:12:41;7.60;38.80
322;DHT22;148;51.480;7.208;2022-12-26T18:15:07;7.60;36.70
322;DHT22;148;51.480;7.208;2022-12-26T18:17:32;7.60;36.10
322;DHT22;148;51.480;7.208;2022-12-26T18:19:58;7.50;34.20
322;DHT22;148;51.480;7.208;2022-12-26T18:22:24;7.50;34.10
322;DHT22;148;51.480;7.208;2022-12-26T18:24:50;7.40;32.80
322;DHT22;148;51.480;7.208;2022-12-26T18:27:28;7.40;32.00
322;DHT22;148;51.480;7.208;2022-12-26T18:29:54;7.40;32.00
322;DHT22;148;51.480;7.208;2022-12-26T18:32:28;7.30;31.30
322;DHT22;148;51.480;7.208;2022-12-26T18:34:54;7.30;31.00
322;DHT22;148;51.480;7.208;2022-12-26T18:37:21;7.30;31.60
322;DHT22;148;51.480;7.208;2022-12-26T18:39:47;7.30;31.00
322;DHT22;148;51.480;7.208;2022-12-26T18:42:14;7.20;30.70
322;DHT22;148;51.480;7.208;2022-12-26T18:44:41;7.20;31.00
322;DHT22;148;51.480;7.208;2022-12-26T18:47:14;7.20;30.00
322;DHT22;148;51.480;7.208;2022-12-26T18:49:40;7.20;30.80
322;DHT22;148;51.480;7.208;2022-12-26T18:52:07;7.20;30.30
322;DHT22;148;51.480;7.208;2022-12-26T18:54:33;7.10;31.90
322;DHT22;148;51.480;7.208;2022-12-26T18:57:01;7.10;31.90
322;DHT22;148;51.480;7.208;2022-12-26T18:59:26;7.10;30.90
322;DHT22;148;51.480;7.208;2022-12-26T19:01:52;7.10;31.00
322;DHT22;148;51.480;7.208;2022-12-26T19:04:18;7.00;31.60
